sensor_id;sensor_type;location;lat;lon;timestamp;P1;durP1;ratioP1;P2;durP2;ratioP2
67717;SDS011;54511;47.532;19.180;2023-05-29T00:00:46;2.72;;;1.10;;
67717;SDS011;54511;47.532;19.180;2023-05-29T00:03:34;7.82;;;1.42;;
67717;SDS011;54511;47.532;19.180;2023-05-29T00:06:24;1.62;;;1.20;;
67717;SDS011;54511;47.532;19.180;2023-05-29T00:09:48;2.20;;;1.20;;
67717;SDS011;54511;47.532;19.180;2023-05-29T00:13:15;0.90;;;0.90;;
67717;SDS011;54511;47.532;19.180;2023-05-29T00:16:43;2.55;;;1.45;;
67717;SDS011;54511;47.532;19.180;2023-05-29T00:19:50;1.33;;;0.98;;
67717;SDS011;54511;47.532;19.180;2023-05-29T00:22:39;2.50;;;1.35;;
67717;SDS011;54511;47.532;19.180;2023-05-29T00:26:19;1.75;;;1.12;;
67717;SDS011;54511;47.532;19.180;2023-05-29T00:29:48;2.90;;;1.35;;
67717;SDS011;54511;47.532;19.180;2023-05-29T00:32:50;2.58;;;1.52;;
67717;SDS011;54511;47.532;19.180;2023-05-29T00:36:24;3.80;;;1.52;;
67717;SDS011;54511;47.532;19.180;2023-05-29T00:39:31;3.05;;;0.82;;
67717;SDS011;54511;47.532;19.180;2023-05-29T00:42:43;3.22;;;1.50;;
67717;SDS011;54511;47.532;19.180;2023-05-29T00:45:53;2.58;;;1.33;;
67717;SDS011;54511;47.532;19.180;2023-05-29T00:49:25;3.45;;;1.70;;
67717;SDS011;54511;47.532;19.180;2023-05-29T00:52:59;3.65;;;1.08;;
67717;SDS011;54511;47.532;19.180;2023-05-29T00:56:01;1.98;;;1.17;;
67717;SDS011;54511;47.532;19.180;2023-05-29T00:59:32;4.22;;;1.75;;
67717;SDS011;54511;47.532;19.180;2023-05-29T01:03:04;3.45;;;1.60;;
67717;SDS011;54511;47.532;19.180;2023-05-29T01:06:12;1.75;;;1.25;;
67717;SDS011;54511;47.532;19.180;2023-05-29T01:09:41;2.50;;;1.12;;
67717;SDS011;54511;47.532;19.180;2023-05-29T01:13:01;2.70;;;1.50;;
67717;SDS011;54511;47.532;19.180;2023-05-29T01:16:31;1.40;;;1.10;;
67717;SDS011;54511;47.532;19.180;2023-05-29T01:20:13;1.93;;;1.20;;
67717;SDS011;54511;47.532;19.180;2023-05-29T01:26:56;2.17;;;1.33;;
67717;SDS011;54511;47.532;19.180;2023-05-29T01:30:25;4.95;;;1.25;;
67717;SDS011;54511;47.532;19.180;2023-05-29T01:33:32;2.03;;;1.37;;
67717;SDS011;54511;47.532;19.180;2023-05-29T01:36:20;3.55;;;1.48;;
67717;SDS011;54511;47.532;19.180;2023-05-29T01:39:47;2.45;;;0.93;;
67717;SDS011;54511;47.532;19.180;2023-05-29T01:42:58;2.00;;;1.30;;
67717;SDS011;54511;47.532;19.180;2023-05-29T01:46:25;4.20;;;1.20;;
67717;SDS011;54511;47.532;19.180;2023-05-29T01:49:52;3.87;;;1.35;;
67717;SDS011;54511;47.532;19.180;2023-05-29T01:53:19;2.08;;;0.80;;
67717;SDS011;54511;47.532;19.180;2023-05-29T01:56:46;2.42;;;1.30;;
67717;SDS011;54511;47.532;19.180;2023-05-29T01:59:55;1.58;;;0.68;;
67717;SDS011;54511;47.532;19.180;2023-05-29T02:03:23;2.17;;;0.90;;
67717;SDS011;54511;47.532;19.180;2023-05-29T02:06:52;1.37;;;0.82;;
67717;SDS011;54511;47.532;19.180;2023-05-29T02:10:00;1.33;;;1.05;;
67717;SDS011;54511;47.532;19.180;2023-05-29T02:13:29;2.72;;;1.17;;
67717;SDS011;54511;47.532;19.180;2023-05-29T02:16:42;2.30;;;1.17;;
67717;SDS011;54511;47.532;19.180;2023-05-29T02:19:51;0.77;;;0.77;;
67717;SDS011;54511;47.532;19.180;2023-05-29T02:23:19;3.78;;;1.42;;
67717;SDS011;54511;47.532;19.180;2023-05-29T02:26:47;1.55;;;1.27;;
67717;SDS011;54511;47.532;19.180;2023-05-29T02:30:17;2.90;;;0.62;;
67717;SDS011;54511;47.532;19.180;2023-05-29T02:33:26;2.00;;;1.05;;
67717;SDS011;54511;47.532;19.180;2023-05-29T02:36:55;2.10;;;0.98;;
67717;SDS011;54511;47.532;19.180;2023-05-29T02:40:07;2.20;;;1.52;;
67717;SDS011;54511;47.532;19.180;2023-05-29T02:43:37;2.30;;;1.08;;
67717;SDS011;54511;47.532;19.180;2023-05-29T02:46:46;1.58;;;1.48;;
67717;SDS011;54511;47.532;19.180;2023-05-29T02:50:23;1.17;;;0.77;;
67717;SDS011;54511;47.532;19.180;2023-05-29T02:53:50;1.83;;;1.15;;
67717;SDS011;54511;47.532;19.180;2023-05-29T02:56:51;1.08;;;0.95;;
67717;SDS011;54511;47.532;19.180;2023-05-29T02:59:58;2.35;;;1.08;;
67717;SDS011;54511;47.532;19.180;2023-05-29T03:02:51;0.88;;;0.75;;
67717;SDS011;54511;47.532;19.180;2023-05-29T03:05:58;2.03;;;1.40;;
67717;SDS011;54511;47.532;19.180;2023-05-29T03:09:05;0.75;;;0.57;;
67717;SDS011;54511;47.532;19.180;2023-05-29T03:12:32;2.42;;;1.08;;
67717;SDS011;54511;47.532;19.180;2023-05-29T03:16:01;1.48;;;1.12;;
67717;SDS011;54511;47.532;19.180;2023-05-29T03:19:29;1.50;;;0.82;;
67717;SDS011;54511;47.532;19.180;2023-05-29T03:22:39;1.90;;;1.08;;
67717;SDS011;54511;47.532;19.180;2023-05-29T03:25:58;1.65;;;0.50;;
67717;SDS011;54511;47.532;19.180;2023-05-29T03:29:05;1.75;;;0.95;;
67717;SDS011;54511;47.532;19.180;2023-05-29T03:31:52;1.85;;;1.15;;
67717;SDS011;54511;47.532;19.180;2023-05-29T03:34:59;4.72;;;1.85;;
67717;SDS011;54511;47.532;19.180;2023-05-29T03:38:09;5.43;;;1.52;;
67717;SDS011;54511;47.532;19.180;2023-05-29T03:41:17;1.77;;;1.42;;
67717;SDS011;54511;47.532;19.180;2023-05-29T03:44:33;2.12;;;0.88;;
67717;SDS011;54511;47.532;19.180;2023-05-29T03:47:59;2.62;;;0.82;;
67717;SDS011;54511;47.532;19.180;2023-05-29T03:51:08;1.15;;;0.80;;
67717;SDS011;54511;47.532;19.180;2023-05-29T03:54:42;1.45;;;1.08;;
67717;SDS011;54511;47.532;19.180;2023-05-29T03:58:10;1.05;;;0.60;;
67717;SDS011;54511;47.532;19.180;2023-05-29T04:01:40;2.50;;;1.65;;
67717;SDS011;54511;47.532;19.180;2023-05-29T04:04:47;2.72;;;1.17;;
67717;SDS011;54511;47.532;19.180;2023-05-29T04:08:17;1.62;;;1.00;;
67717;SDS011;54511;47.532;19.180;2023-05-29T04:11:49;0.98;;;0.82;;
67717;SDS011;54511;47.532;19.180;2023-05-29T04:15:16;0.98;;;0.88;;
67717;SDS011;54511;47.532;19.180;2023-05-29T04:18:43;1.90;;;1.12;;
67717;SDS011;54511;47.532;19.180;2023-05-29T04:21:50;2.65;;;2.12;;
67717;SDS011;54511;47.532;19.180;2023-05-29T04:24:57;0.40;;;0.40;;
67717;SDS011;54511;47.532;19.180;2023-05-29T04:28:07;2.87;;;0.60;;
67717;SDS011;54511;47.532;19.180;2023-05-29T04:31:34;2.10;;;1.40;;
67717;SDS011;54511;47.532;19.180;2023-05-29T04:35:01;1.00;;;0.70;;
67717;SDS011;54511;47.532;19.180;2023-05-29T04:38:10;2.40;;;0.73;;
67717;SDS011;54511;47.532;19.180;2023-05-29T04:41:36;0.77;;;0.77;;
67717;SDS011;54511;47.532;19.180;2023-05-29T04:45:06;1.85;;;1.20;;
67717;SDS011;54511;47.532;19.180;2023-05-29T04:48:34;3.08;;;1.30;;
67717;SDS011;54511;47.532;19.180;2023-05-29T04:51:21;1.45;;;0.98;;
67717;SDS011;54511;47.532;19.180;2023-05-29T04:54:29;1.50;;;1.30;;
67717;SDS011;54511;47.532;19.180;2023-05-29T04:57:56;2.20;;;1.83;;
67717;SDS011;54511;47.532;19.180;2023-05-29T05:01:05;0.90;;;0.50;;
67717;SDS011;54511;47.532;19.180;2023-05-29T05:04:32;1.12;;;0.95;;
67717;SDS011;54511;47.532;19.180;2023-05-29T05:07:39;1.20;;;0.85;;
67717;SDS011;54511;47.532;19.180;2023-05-29T05:10:50;4.40;;;1.52;;
67717;SDS011;54511;47.532;19.180;2023-05-29T05:13:58;2.03;;;1.33;;
67717;SDS011;54511;47.532;19.180;2023-05-29T05:17:06;2.80;;;1.45;;
67717;SDS011;54511;47.532;19.180;2023-05-29T05:20:34;1.00;;;0.77;;
67717;SDS011;54511;47.532;19.180;2023-05-29T05:24:03;2.00;;;1.02;;
67717;SDS011;54511;47.532;19.180;2023-05-29T05:27:33;2.30;;;0.80;;
67717;SDS011;54511;47.532;19.180;2023-05-29T05:30:49;1.15;;;0.75;;
67717;SDS011;54511;47.532;19.180;2023-05-29T05:34:25;0.77;;;0.77;;
67717;SDS011;54511;47.532;19.180;2023-05-29T05:37:53;2.95;;;1.48;;
67717;SDS011;54511;47.532;19.180;2023-05-29T05:41:20;0.98;;;0.93;;
67717;SDS011;54511;47.532;19.180;2023-05-29T05:44:36;2.60;;;1.23;;
67717;SDS011;54511;47.532;19.180;2023-05-29T05:47:44;1.00;;;0.90;;
67717;SDS011;54511;47.532;19.180;2023-05-29T06:01:29;3.08;;;1.35;;
67717;SDS011;54511;47.532;19.180;2023-05-29T06:05:02;2.65;;;1.58;;
67717;SDS011;54511;47.532;19.180;2023-05-29T06:08:34;4.72;;;1.20;;
67717;SDS011;54511;47.532;19.180;2023-05-29T06:11:51;2.08;;;1.12;;
67717;SDS011;54511;47.532;19.180;2023-05-29T06:19:23;1.55;;;1.00;;
67717;SDS011;54511;47.532;19.180;2023-05-29T06:22:51;4.80;;;1.08;;
67717;SDS011;54511;47.532;19.180;2023-05-29T06:26:20;4.47;;;1.70;;
67717;SDS011;54511;47.532;19.180;2023-05-29T06:33:35;1.15;;;1.05;;
67717;SDS011;54511;47.532;19.180;2023-05-29T06:38:44;5.53;;;1.10;;
67717;SDS011;54511;47.532;19.180;2023-05-29T06:41:03;1.70;;;1.27;;
67717;SDS011;54511;47.532;19.180;2023-05-29T06:46:12;2.85;;;1.23;;
67717;SDS011;54511;47.532;19.180;2023-05-29T06:54:46;2.12;;;1.27;;
67717;SDS011;54511;47.532;19.180;2023-05-29T06:58:27;1.87;;;1.00;;
67717;SDS011;54511;47.532;19.180;2023-05-29T07:01:30;4.07;;;1.40;;
67717;SDS011;54511;47.532;19.180;2023-05-29T07:08:37;2.58;;;1.62;;
67717;SDS011;54511;47.532;19.180;2023-05-29T07:48:37;2.80;;;1.37;;
67717;SDS011;54511;47.532;19.180;2023-05-29T10:09:17;3.30;;;1.52;;
67717;SDS011;54511;47.532;19.180;2023-05-29T10:12:36;4.68;;;1.70;;
67717;SDS011;54511;47.532;19.180;2023-05-29T11:25:03;4.22;;;1.67;;
67717;SDS011;54511;47.532;19.180;2023-05-29T13:08:06;3.20;;;1.83;;
67717;SDS011;54511;47.532;19.180;2023-05-29T14:18:11;8.15;;;2.20;;
67717;SDS011;54511;47.532;19.180;2023-05-29T14:53:31;4.80;;;1.92;;
67717;SDS011;54511;47.532;19.180;2023-05-29T15:32:41;4.82;;;2.50;;
67717;SDS011;54511;47.532;19.180;2023-05-29T15:35:48;7.32;;;2.00;;
67717;SDS011;54511;47.532;19.180;2023-05-29T15:38:55;3.45;;;1.58;;
67717;SDS011;54511;47.532;19.180;2023-05-29T15:41:43;4.50;;;2.08;;
67717;SDS011;54511;47.532;19.180;2023-05-29T15:44:50;2.90;;;1.75;;
67717;SDS011;54511;47.532;19.180;2023-05-29T15:47:37;8.93;;;2.30;;
67717;SDS011;54511;47.532;19.180;2023-05-29T15:51:06;6.22;;;2.40;;
67717;SDS011;54511;47.532;19.180;2023-05-29T15:54:14;2.72;;;1.67;;
67717;SDS011;54511;47.532;19.180;2023-05-29T15:57:41;2.50;;;1.80;;
67717;SDS011;54511;47.532;19.180;2023-05-29T16:00:48;5.43;;;1.80;;
67717;SDS011;54511;47.532;19.180;2023-05-29T16:03:57;4.47;;;2.20;;
67717;SDS011;54511;47.532;19.180;2023-05-29T16:07:24;3.55;;;2.05;;
67717;SDS011;54511;47.532;19.180;2023-05-29T16:10:15;5.28;;;2.37;;
67717;SDS011;54511;47.532;19.180;2023-05-29T16:13:22;3.83;;;1.60;;
67717;SDS011;54511;47.532;19.180;2023-05-29T16:16:09;6.12;;;2.50;;
67717;SDS011;54511;47.532;19.180;2023-05-29T16:18:59;6.80;;;2.20;;
67717;SDS011;54511;47.532;19.180;2023-05-29T16:22:26;3.78;;;2.00;;
67717;SDS011;54511;47.532;19.180;2023-05-29T16:25:34;3.70;;;1.73;;
67717;SDS011;54511;47.532;19.180;2023-05-29T16:29:02;3.25;;;1.80;;
67717;SDS011;54511;47.532;19.180;2023-05-29T16:32:29;2.87;;;1.17;;
67717;SDS011;54511;47.532;19.180;2023-05-29T16:35:39;5.95;;;1.95;;
67717;SDS011;54511;47.532;19.180;2023-05-29T16:38:46;4.62;;;2.42;;
67717;SDS011;54511;47.532;19.180;2023-05-29T16:41:34;4.18;;;2.22;;
67717;SDS011;54511;47.532;19.180;2023-05-29T16:44:42;5.95;;;2.40;;
67717;SDS011;54511;47.532;19.180;2023-05-29T16:48:11;3.17;;;1.95;;
67717;SDS011;54511;47.532;19.180;2023-05-29T16:51:24;3.97;;;2.15;;
67717;SDS011;54511;47.532;19.180;2023-05-29T16:54:30;5.22;;;2.42;;
67717;SDS011;54511;47.532;19.180;2023-05-29T16:57:41;5.10;;;2.10;;
67717;SDS011;54511;47.532;19.180;2023-05-29T17:00:29;3.17;;;1.70;;
67717;SDS011;54511;47.532;19.180;2023-05-29T17:03:16;3.60;;;2.08;;
67717;SDS011;54511;47.532;19.180;2023-05-29T17:06:24;4.30;;;2.03;;
67717;SDS011;54511;47.532;19.180;2023-05-29T17:09:52;2.22;;;1.40;;
67717;SDS011;54511;47.532;19.180;2023-05-29T17:13:19;4.12;;;1.80;;
67717;SDS011;54511;47.532;19.180;2023-05-29T17:16:27;4.10;;;1.60;;
67717;SDS011;54511;47.532;19.180;2023-05-29T17:19:14;3.67;;;1.67;;
67717;SDS011;54511;47.532;19.180;2023-05-29T17:22:03;3.92;;;2.37;;
67717;SDS011;54511;47.532;19.180;2023-05-29T17:25:30;5.00;;;2.12;;
67717;SDS011;54511;47.532;19.180;2023-05-29T17:28:57;3.12;;;1.75;;
67717;SDS011;54511;47.532;19.180;2023-05-29T17:32:04;4.85;;;2.12;;
67717;SDS011;54511;47.532;19.180;2023-05-29T17:34:52;2.85;;;1.58;;
67717;SDS011;54511;47.532;19.180;2023-05-29T17:38:04;3.70;;;2.15;;
67717;SDS011;54511;47.532;19.180;2023-05-29T17:41:31;2.62;;;1.85;;
67717;SDS011;54511;47.532;19.180;2023-05-29T17:44:20;4.97;;;2.12;;
67717;SDS011;54511;47.532;19.180;2023-05-29T17:47:07;4.78;;;2.15;;
67717;SDS011;54511;47.532;19.180;2023-05-29T17:50:36;5.03;;;1.98;;
67717;SDS011;54511;47.532;19.180;2023-05-29T17:53:44;4.05;;;2.10;;
67717;SDS011;54511;47.532;19.180;2023-05-29T17:57:11;3.58;;;1.65;;
67717;SDS011;54511;47.532;19.180;2023-05-29T17:59:59;4.82;;;1.85;;
67717;SDS011;54511;47.532;19.180;2023-05-29T18:03:06;3.05;;;1.83;;
67717;SDS011;54511;47.532;19.180;2023-05-29T18:05:54;4.07;;;2.15;;
67717;SDS011;54511;47.532;19.180;2023-05-29T18:08:41;2.40;;;1.42;;
67717;SDS011;54511;47.532;19.180;2023-05-29T18:11:30;5.25;;;2.28;;
67717;SDS011;54511;47.532;19.180;2023-05-29T18:14:38;3.62;;;1.70;;
67717;SDS011;54511;47.532;19.180;2023-05-29T18:17:45;4.93;;;2.17;;
67717;SDS011;54511;47.532;19.180;2023-05-29T18:21:12;4.12;;;1.90;;
67717;SDS011;54511;47.532;19.180;2023-05-29T18:24:19;3.03;;;1.90;;
67717;SDS011;54511;47.532;19.180;2023-05-29T18:27:28;5.15;;;2.58;;
67717;SDS011;54511;47.532;19.180;2023-05-29T18:30:16;2.03;;;1.58;;
67717;SDS011;54511;47.532;19.180;2023-05-29T18:33:03;3.67;;;1.65;;
67717;SDS011;54511;47.532;19.180;2023-05-29T18:36:31;3.25;;;2.03;;
67717;SDS011;54511;47.532;19.180;2023-05-29T18:39:37;5.15;;;2.53;;
67717;SDS011;54511;47.532;19.180;2023-05-29T18:42:51;4.37;;;1.95;;
67717;SDS011;54511;47.532;19.180;2023-05-29T18:46:20;2.33;;;2.08;;
67717;SDS011;54511;47.532;19.180;2023-05-29T18:49:48;3.37;;;1.75;;
67717;SDS011;54511;47.532;19.180;2023-05-29T18:53:12;4.00;;;1.83;;
67717;SDS011;54511;47.532;19.180;2023-05-29T18:56:23;4.00;;;2.30;;
67717;SDS011;54511;47.532;19.180;2023-05-29T19:03:43;5.47;;;2.10;;
67717;SDS011;54511;47.532;19.180;2023-05-29T19:06:51;2.42;;;1.30;;
67717;SDS011;54511;47.532;19.180;2023-05-29T19:10:23;5.05;;;1.95;;
67717;SDS011;54511;47.532;19.180;2023-05-29T19:13:45;3.85;;;1.90;;
67717;SDS011;54511;47.532;19.180;2023-05-29T19:20:14;3.28;;;2.10;;
67717;SDS011;54511;47.532;19.180;2023-05-29T19:23:35;3.28;;;1.87;;
67717;SDS011;54511;47.532;19.180;2023-05-29T19:26:56;5.57;;;2.20;;
67717;SDS011;54511;47.532;19.180;2023-05-29T19:30:18;2.92;;;2.37;;
67717;SDS011;54511;47.532;19.180;2023-05-29T19:33:25;6.30;;;2.20;;
67717;SDS011;54511;47.532;19.180;2023-05-29T19:40:10;6.00;;;2.40;;
67717;SDS011;54511;47.532;19.180;2023-05-29T19:43:27;3.22;;;1.95;;
67717;SDS011;54511;47.532;19.180;2023-05-29T19:46:47;4.93;;;1.62;;
67717;SDS011;54511;47.532;19.180;2023-05-29T19:50:16;8.45;;;1.42;;
67717;SDS011;54511;47.532;19.180;2023-05-29T19:53:20;5.53;;;2.42;;
67717;SDS011;54511;47.532;19.180;2023-05-29T19:57:07;2.00;;;1.52;;
67717;SDS011;54511;47.532;19.180;2023-05-29T20:00:36;5.10;;;2.25;;
67717;SDS011;54511;47.532;19.180;2023-05-29T20:03:24;4.18;;;2.00;;
67717;SDS011;54511;47.532;19.180;2023-05-29T20:06:32;4.57;;;2.30;;
67717;SDS011;54511;47.532;19.180;2023-05-29T20:09:20;7.15;;;2.50;;
67717;SDS011;54511;47.532;19.180;2023-05-29T20:16:17;5.05;;;2.22;;
67717;SDS011;54511;47.532;19.180;2023-05-29T20:19:41;3.55;;;1.87;;
67717;SDS011;54511;47.532;19.180;2023-05-29T20:22:30;4.50;;;2.17;;
67717;SDS011;54511;47.532;19.180;2023-05-29T20:25:13;2.83;;;2.22;;
67717;SDS011;54511;47.532;19.180;2023-05-29T20:31:52;5.20;;;2.40;;
67717;SDS011;54511;47.532;19.180;2023-05-29T20:35:03;4.37;;;2.28;;
67717;SDS011;54511;47.532;19.180;2023-05-29T20:37:51;3.37;;;2.20;;
67717;SDS011;54511;47.532;19.180;2023-05-29T20:41:20;4.75;;;2.20;;
67717;SDS011;54511;47.532;19.180;2023-05-29T20:48:26;1.65;;;1.52;;
67717;SDS011;54511;47.532;19.180;2023-05-29T20:51:48;2.33;;;1.87;;
67717;SDS011;54511;47.532;19.180;2023-05-29T20:54:57;6.32;;;2.85;;
67717;SDS011;54511;47.532;19.180;2023-05-29T20:58:15;3.60;;;2.00;;
67717;SDS011;54511;47.532;19.180;2023-05-29T21:04:24;5.37;;;2.33;;
67717;SDS011;54511;47.532;19.180;2023-05-29T21:07:51;6.22;;;2.83;;
67717;SDS011;54511;47.532;19.180;2023-05-29T21:12:26;7.45;;;3.53;;
67717;SDS011;54511;47.532;19.180;2023-05-29T21:14:33;6.82;;;2.55;;
67717;SDS011;54511;47.532;19.180;2023-05-29T21:18:08;4.97;;;2.42;;
67717;SDS011;54511;47.532;19.180;2023-05-29T21:31:29;3.85;;;2.50;;
67717;SDS011;54511;47.532;19.180;2023-05-29T21:34:58;5.32;;;2.67;;
67717;SDS011;54511;47.532;19.180;2023-05-29T21:38:41;4.57;;;2.87;;
67717;SDS011;54511;47.532;19.180;2023-05-29T21:41:46;3.05;;;2.12;;
67717;SDS011;54511;47.532;19.180;2023-05-29T21:45:08;7.72;;;2.00;;
67717;SDS011;54511;47.532;19.180;2023-05-29T21:48:35;2.60;;;1.75;;
67717;SDS011;54511;47.532;19.180;2023-05-29T21:51:58;4.07;;;2.33;;
67717;SDS011;54511;47.532;19.180;2023-05-29T21:55:31;8.02;;;3.40;;
67717;SDS011;54511;47.532;19.180;2023-05-29T21:59:06;3.85;;;2.17;;
67717;SDS011;54511;47.532;19.180;2023-05-29T22:02:03;3.72;;;1.90;;
67717;SDS011;54511;47.532;19.180;2023-05-29T22:05:23;4.65;;;2.60;;
67717;SDS011;54511;47.532;19.180;2023-05-29T22:08:22;5.45;;;2.35;;
67717;SDS011;54511;47.532;19.180;2023-05-29T22:11:44;3.95;;;2.55;;
67717;SDS011;54511;47.532;19.180;2023-05-29T22:15:13;5.20;;;2.17;;
67717;SDS011;54511;47.532;19.180;2023-05-29T22:18:50;3.17;;;1.92;;
67717;SDS011;54511;47.532;19.180;2023-05-29T22:22:11;3.20;;;2.15;;
67717;SDS011;54511;47.532;19.180;2023-05-29T22:25:28;4.97;;;2.17;;
67717;SDS011;54511;47.532;19.180;2023-05-29T22:28:56;4.57;;;2.67;;
67717;SDS011;54511;47.532;19.180;2023-05-29T22:32:40;9.15;;;3.42;;
67717;SDS011;54511;47.532;19.180;2023-05-29T22:36:10;9.57;;;2.62;;
67717;SDS011;54511;47.532;19.180;2023-05-29T22:39:45;4.53;;;1.70;;
67717;SDS011;54511;47.532;19.180;2023-05-29T22:43:06;5.30;;;2.55;;
67717;SDS011;54511;47.532;19.180;2023-05-29T22:45:55;6.12;;;2.30;;
67717;SDS011;54511;47.532;19.180;2023-05-29T22:49:04;6.97;;;3.60;;
67717;SDS011;54511;47.532;19.180;2023-05-29T22:52:30;4.75;;;2.85;;
67717;SDS011;54511;47.532;19.180;2023-05-29T22:55:33;4.00;;;2.50;;
67717;SDS011;54511;47.532;19.180;2023-05-29T22:59:05;5.87;;;2.73;;
67717;SDS011;54511;47.532;19.180;2023-05-29T23:02:23;4.07;;;1.75;;
67717;SDS011;54511;47.532;19.180;2023-05-29T23:05:58;2.08;;;1.80;;
67717;SDS011;54511;47.532;19.180;2023-05-29T23:09:19;6.00;;;2.55;;
67717;SDS011;54511;47.532;19.180;2023-05-29T23:41:19;7.40;;;2.67;;
67717;SDS011;54511;47.532;19.180;2023-05-29T23:44:50;2.75;;;1.48;;
67717;SDS011;54511;47.532;19.180;2023-05-29T23:48:06;4.28;;;2.78;;
67717;SDS011;54511;47.532;19.180;2023-05-29T23:51:32;5.22;;;2.30;;
67717;SDS011;54511;47.532;19.180;2023-05-29T23:54:59;5.35;;;2.55;;
67717;SDS011;54511;47.532;19.180;2023-05-29T23:58:22;5.10;;;2.30;;
